createdAt,value
2022-11-05T00:02:19.429Z,10.30
2022-11-05T00:05:04.964Z,10.40
2022-11-05T00:07:51.700Z,10.40
2022-11-05T00:10:23.261Z,10.50
2022-11-05T00:13:08.844Z,10.50
2022-11-05T00:15:54.067Z,10.50
2022-11-05T00:18:21.791Z,10.60
2022-11-05T00:20:51.270Z,10.60
2022-11-05T00:23:36.464Z,10.60
2022-11-05T00:26:06.418Z,10.80
2022-11-05T00:28:34.901Z,10.70
2022-11-05T00:31:03.624Z,10.80
2022-11-05T00:33:31.458Z,10.80
2022-11-05T00:35:59.229Z,10.70
2022-11-05T00:38:26.929Z,10.70
2022-11-05T00:40:54.576Z,10.60
2022-11-05T00:43:41.102Z,10.60
2022-11-05T00:46:08.899Z,10.50
2022-11-05T00:48:57.886Z,10.60
2022-11-05T00:51:25.625Z,10.50
2022-11-05T00:53:53.321Z,10.50
2022-11-05T00:56:22.981Z,10.60
2022-11-05T00:58:51.994Z,10.70
2022-11-05T01:01:19.766Z,10.70
2022-11-05T01:03:51.455Z,10.60
2022-11-05T01:06:20.269Z,10.60
2022-11-05T01:08:47.976Z,10.50
2022-11-05T01:11:32.924Z,10.40
2022-11-05T01:14:03.976Z,10.30
2022-11-05T01:16:31.807Z,10.50
2022-11-05T01:18:59.524Z,10.50
2022-11-05T01:21:27.236Z,10.40
2022-11-05T01:23:54.936Z,10.30
2022-11-05T01:26:22.745Z,10.30
2022-11-05T01:28:51.600Z,10.30
2022-11-05T01:31:20.850Z,10.40
2022-11-05T01:33:48.694Z,10.40
2022-11-05T01:36:16.672Z,10.40
2022-11-05T01:38:44.381Z,10.30
2022-11-05T01:41:12.371Z,10.20
2022-11-05T01:43:50.183Z,10.20
2022-11-05T01:46:18.914Z,10.20
2022-11-05T01:48:49.657Z,10.20
2022-11-05T01:51:19.297Z,10.20
2022-11-05T01:53:49.387Z,10.20
2022-11-05T01:56:18.450Z,10.10
2022-11-05T01:58:49.077Z,10.10
2022-11-05T02:01:16.818Z,10.00
2022-11-05T02:03:45.795Z,10.00
2022-11-05T02:06:17.061Z,10.00
2022-11-05T02:08:50.533Z,10.00
2022-11-05T02:11:19.212Z,9.90
2022-11-05T02:13:46.893Z,9.90
2022-11-05T02:16:19.530Z,9.90
2022-11-05T02:18:51.873Z,10.00
2022-11-05T02:21:38.664Z,10.00
2022-11-05T02:24:20.225Z,10.10
2022-11-05T02:26:58.793Z,10.20
2022-11-05T02:29:50.665Z,10.20
2022-11-05T02:32:24.607Z,10.30
2022-11-05T02:34:55.980Z,10.30
2022-11-05T02:37:28.949Z,10.30
2022-11-05T02:40:02.368Z,10.30
2022-11-05T02:42:31.502Z,10.40
2022-11-05T02:45:05.637Z,10.40
2022-11-05T02:47:38.849Z,10.40
2022-11-05T02:50:10.406Z,10.40
2022-11-05T02:52:41.196Z,10.50
2022-11-05T02:55:14.400Z,10.50
2022-11-05T02:57:44.634Z,10.50
2022-11-05T03:00:27.154Z,10.50
2022-11-05T03:02:56.284Z,10.50
2022-11-05T03:05:29.625Z,10.40
2022-11-05T03:08:02.072Z,10.50
2022-11-05T03:10:39.535Z,10.50
2022-11-05T03:13:13.147Z,10.60
2022-11-05T03:15:48.028Z,10.60
2022-11-05T03:18:21.175Z,10.50
2022-11-05T03:20:51.002Z,10.30
2022-11-05T03:23:22.989Z,10.30
2022-11-05T03:25:52.618Z,10.30
2022-11-05T03:28:22.924Z,10.40
2022-11-05T03:30:51.369Z,10.50
2022-11-05T03:33:22.516Z,10.60
2022-11-05T03:35:52.833Z,10.60
2022-11-05T03:38:22.986Z,10.70
2022-11-05T03:40:52.806Z,10.70
2022-11-05T03:43:21.877Z,10.70
2022-11-05T03:45:53.638Z,10.70
2022-11-05T03:48:24.590Z,10.70
2022-11-05T03:50:54.238Z,10.60
2022-11-05T03:53:24.418Z,10.70
2022-11-05T03:55:54.747Z,10.50
2022-11-05T03:58:23.488Z,10.40
2022-11-05T04:00:51.821Z,10.50
2022-11-05T04:03:19.807Z,10.60
2022-11-05T04:06:09.244Z,10.70
2022-11-05T04:08:54.332Z,10.70
2022-11-05T04:11:50.912Z,10.80
2022-11-05T04:14:18.593Z,10.70
2022-11-05T04:17:08.913Z,10.60
2022-11-05T04:19:54.619Z,10.50
2022-11-05T04:22:41.467Z,10.20
2022-11-05T04:25:09.481Z,9.90
2022-11-05T04:27:37.212Z,9.80
2022-11-05T04:30:19.459Z,9.70
2022-11-05T04:33:00.469Z,9.70
2022-11-05T04:35:28.548Z,9.70
2022-11-05T04:37:57.759Z,9.80
2022-11-05T04:40:25.433Z,9.80
2022-11-05T04:42:54.271Z,9.90
2022-11-05T04:45:22.083Z,9.80
2022-11-05T04:47:49.772Z,9.80
2022-11-05T04:50:17.589Z,9.90
2022-11-05T04:52:45.326Z,9.90
2022-11-05T04:55:14.506Z,10.00
2022-11-05T04:57:42.261Z,10.00
2022-11-05T05:00:10.916Z,10.10
2022-11-05T05:02:38.596Z,10.10
2022-11-05T05:05:07.269Z,10.10
2022-11-05T05:07:35.414Z,10.10
2022-11-05T05:10:03.412Z,10.10
2022-11-05T05:12:32.796Z,10.20
2022-11-05T05:15:00.544Z,10.40
2022-11-05T05:17:28.231Z,10.50
2022-11-05T05:20:13.685Z,10.60
2022-11-05T05:22:41.372Z,10.60
2022-11-05T05:25:09.239Z,10.70
2022-11-05T05:27:38.258Z,10.70
2022-11-05T05:30:06.414Z,10.80
2022-11-05T05:32:34.103Z,10.80
2022-11-05T05:35:01.835Z,10.80
2022-11-05T05:37:29.499Z,10.90
2022-11-05T05:39:57.261Z,10.90
2022-11-05T05:42:25.131Z,10.80
2022-11-05T05:44:54.195Z,10.70
2022-11-05T05:47:21.889Z,10.80
2022-11-05T05:49:49.596Z,10.80
2022-11-05T05:52:17.469Z,10.90
2022-11-05T05:54:45.179Z,10.90
2022-11-05T05:57:12.879Z,10.80
2022-11-05T05:59:40.557Z,10.90
2022-11-05T06:02:10.841Z,10.90
2022-11-05T06:04:38.637Z,10.80
2022-11-05T06:07:06.318Z,10.70
2022-11-05T06:09:33.989Z,10.70
2022-11-05T06:12:01.752Z,10.70
2022-11-05T06:14:29.436Z,10.70
2022-11-05T06:16:57.117Z,10.70
2022-11-05T06:19:26.141Z,10.60
2022-11-05T06:21:53.799Z,10.50
2022-11-05T06:24:21.523Z,10.50
2022-11-05T06:26:49.219Z,10.50
2022-11-05T06:29:16.892Z,10.60
2022-11-05T06:31:44.583Z,10.60
2022-11-05T06:34:12.272Z,10.60
2022-11-05T06:36:41.313Z,10.60
2022-11-05T06:39:10.735Z,10.60
2022-11-05T06:42:03.991Z,10.70
2022-11-05T06:44:26.124Z,10.80
2022-11-05T06:46:53.854Z,10.80
2022-11-05T06:49:24.414Z,10.80
2022-11-05T06:51:53.471Z,10.90
2022-11-05T06:54:21.352Z,10.90
2022-11-05T06:56:49.025Z,11.00
2022-11-05T06:59:16.770Z,11.00
2022-11-05T07:01:44.518Z,10.90
2022-11-05T07:04:12.694Z,11.00
2022-11-05T07:06:40.617Z,10.90
2022-11-05T07:09:09.670Z,10.90
2022-11-05T07:11:37.356Z,11.00
2022-11-05T07:14:05.187Z,10.90
2022-11-05T07:16:32.869Z,10.90
2022-11-05T07:19:00.590Z,10.90
2022-11-05T07:21:28.975Z,11.00
2022-11-05T07:23:56.689Z,11.00
2022-11-05T07:26:31.846Z,10.90
2022-11-05T07:29:02.025Z,10.90
2022-11-05T07:31:29.704Z,10.80
2022-11-05T07:33:59.076Z,10.70
2022-11-05T07:36:26.802Z,10.70
2022-11-05T07:38:59.873Z,10.50
2022-11-05T07:41:29.743Z,10.60
2022-11-05T07:43:57.500Z,10.70
2022-11-05T07:46:25.226Z,10.70
2022-11-05T07:48:53.040Z,10.90
2022-11-05T07:51:20.722Z,10.90
2022-11-05T07:53:48.538Z,11.00
2022-11-05T07:56:16.356Z,11.20
2022-11-05T07:58:45.490Z,11.20
2022-11-05T08:01:13.316Z,11.40
2022-11-05T08:03:41.238Z,11.50
2022-11-05T08:06:08.974Z,11.70
2022-11-05T08:08:36.771Z,11.50
2022-11-05T08:11:05.165Z,11.60
2022-11-05T08:13:33.097Z,11.70
2022-11-05T08:16:02.520Z,11.70
2022-11-05T08:18:32.310Z,11.70
2022-11-05T08:21:00.408Z,11.70
2022-11-05T08:23:28.342Z,11.80
2022-11-05T08:25:56.769Z,11.80
2022-11-05T08:28:24.937Z,11.70
2022-11-05T08:30:53.367Z,11.60
2022-11-05T08:33:22.781Z,11.70
2022-11-05T08:35:50.657Z,11.70
2022-11-05T08:38:19.130Z,11.70
2022-11-05T08:40:47.721Z,11.80
2022-11-05T08:43:15.499Z,11.80
2022-11-05T08:45:43.255Z,12.00
2022-11-05T08:48:11.729Z,12.00
2022-11-05T08:50:40.771Z,12.10
2022-11-05T08:53:09.518Z,12.10
2022-11-05T08:55:38.517Z,12.20
2022-11-05T08:58:07.469Z,12.30
2022-11-05T09:00:36.098Z,12.20
2022-11-05T09:03:05.451Z,12.40
2022-11-05T09:05:37.584Z,12.60
2022-11-05T09:08:07.177Z,12.60
2022-11-05T09:10:34.853Z,12.60
2022-11-05T09:13:02.842Z,13.00
2022-11-05T09:15:31.535Z,13.20
2022-11-05T09:17:59.204Z,13.10
2022-11-05T09:20:27.022Z,13.20
2022-11-05T09:22:54.861Z,13.60
2022-11-05T09:25:23.911Z,13.80
2022-11-05T09:27:51.717Z,13.70
2022-11-05T09:30:19.549Z,14.00
2022-11-05T09:32:47.249Z,13.90
2022-11-05T09:35:15.107Z,13.90
2022-11-05T09:37:42.785Z,13.80
2022-11-05T09:40:16.728Z,13.80
2022-11-05T09:42:46.862Z,13.90
2022-11-05T09:45:16.231Z,13.50
2022-11-05T09:47:45.245Z,13.20
2022-11-05T09:50:15.599Z,13.10
2022-11-05T09:52:43.291Z,13.00
2022-11-05T09:55:18.284Z,12.80
2022-11-05T09:57:50.736Z,12.50
2022-11-05T10:00:18.925Z,12.70
2022-11-05T10:02:48.933Z,12.80
2022-11-05T10:05:16.776Z,13.00
2022-11-05T10:07:46.181Z,13.60
2022-11-05T10:10:23.048Z,14.10
2022-11-05T10:12:54.338Z,14.70
2022-11-05T10:15:23.388Z,15.10
2022-11-05T10:17:55.018Z,15.00
2022-11-05T10:20:25.577Z,15.10
2022-11-05T10:22:56.306Z,15.20
2022-11-05T10:25:25.907Z,15.40
2022-11-05T10:27:55.753Z,15.20
2022-11-05T10:30:23.510Z,15.20
2022-11-05T10:32:54.147Z,15.20
2022-11-05T10:35:23.051Z,15.20
2022-11-05T10:37:51.358Z,15.00
2022-11-05T10:40:23.248Z,15.00
2022-11-05T10:43:15.789Z,15.50
2022-11-05T10:45:51.028Z,15.90
2022-11-05T10:48:43.633Z,16.60
2022-11-05T10:51:12.520Z,16.80
2022-11-05T10:53:40.694Z,17.10
2022-11-05T10:56:23.239Z,17.20
2022-11-05T10:58:54.609Z,16.90
2022-11-05T11:01:24.525Z,17.10
2022-11-05T11:03:53.773Z,17.60
2022-11-05T11:06:24.198Z,18.00
2022-11-05T11:08:52.884Z,18.00
2022-11-05T11:11:28.768Z,18.20
2022-11-05T11:14:00.549Z,18.30
2022-11-05T11:16:31.933Z,18.10
2022-11-05T11:19:00.832Z,18.10
2022-11-05T11:21:29.342Z,18.40
2022-11-05T11:23:58.292Z,18.30
2022-11-05T11:26:27.452Z,18.40
2022-11-05T11:28:57.417Z,18.80
2022-11-05T11:31:26.350Z,18.90
2022-11-05T11:33:57.758Z,19.20
2022-11-05T11:36:27.880Z,19.30
2022-11-05T11:38:59.826Z,19.60
2022-11-05T11:41:28.856Z,19.50
2022-11-05T11:43:58.180Z,19.60
2022-11-05T11:46:25.943Z,19.80
2022-11-05T11:48:55.217Z,19.80
2022-11-05T11:51:31.087Z,19.40
2022-11-05T11:53:59.529Z,19.40
2022-11-05T11:56:27.427Z,19.30
2022-11-05T11:58:55.767Z,19.60
2022-11-05T12:01:42.030Z,19.30
2022-11-05T12:04:20.787Z,19.10
2022-11-05T12:06:54.477Z,18.60
2022-11-05T12:09:24.746Z,18.20
2022-11-05T12:11:57.080Z,18.20
2022-11-05T12:14:28.366Z,18.80
2022-11-05T12:17:12.661Z,18.80
2022-11-05T12:19:47.948Z,18.40
2022-11-05T12:22:20.316Z,17.80
2022-11-05T12:24:53.993Z,17.30
2022-11-05T12:27:27.953Z,16.90
2022-11-05T12:30:00.714Z,16.50
2022-11-05T12:32:40.470Z,16.10
2022-11-05T12:35:15.248Z,16.10
2022-11-05T12:37:48.231Z,15.70
2022-11-05T12:40:21.759Z,15.30
2022-11-05T12:42:56.922Z,15.10
2022-11-05T12:45:30.637Z,14.70
2022-11-05T12:48:05.577Z,14.30
2022-11-05T12:50:38.996Z,14.30
2022-11-05T12:53:15.746Z,14.30
2022-11-05T12:55:48.540Z,14.20
2022-11-05T12:58:20.394Z,14.00
2022-11-05T13:00:50.870Z,14.00
2022-11-05T13:03:24.277Z,13.80
2022-11-05T13:05:55.221Z,13.80
2022-11-05T13:08:26.324Z,13.90
2022-11-05T13:10:56.553Z,13.90
2022-11-05T13:13:27.490Z,13.80
2022-11-05T13:15:56.856Z,13.70
2022-11-05T13:18:27.322Z,13.80
2022-11-05T13:20:57.458Z,13.70
2022-11-05T13:23:30.174Z,13.70
2022-11-05T13:26:00.268Z,13.40
2022-11-05T13:28:46.897Z,13.40
2022-11-05T13:31:18.522Z,13.30
2022-11-05T13:33:48.697Z,13.30
2022-11-05T13:36:37.953Z,13.30
2022-11-05T13:39:11.052Z,13.30
2022-11-05T13:41:45.174Z,13.10
2022-11-05T13:44:30.883Z,13.00
2022-11-05T13:47:17.106Z,13.00
2022-11-05T13:49:59.025Z,12.80
2022-11-05T13:52:37.501Z,12.80
2022-11-05T13:55:15.525Z,12.90
2022-11-05T13:57:50.825Z,13.00
2022-11-05T14:00:20.039Z,13.00
2022-11-05T14:02:50.530Z,12.90
2022-11-05T14:05:23.480Z,12.90
2022-11-05T14:07:53.254Z,12.90
2022-11-05T14:10:38.588Z,12.90
2022-11-05T14:13:17.645Z,12.80
2022-11-05T14:15:56.245Z,12.70
2022-11-05T14:18:37.105Z,12.60
2022-11-05T14:21:05.984Z,12.60
2022-11-05T14:23:42.329Z,12.40
2022-11-05T14:26:15.594Z,12.40
2022-11-05T14:28:45.402Z,12.30
2022-11-05T14:31:41.082Z,12.20
2022-11-05T14:34:19.558Z,12.10
2022-11-05T14:36:47.402Z,12.00
2022-11-05T14:39:26.257Z,11.90
2022-11-05T14:41:57.177Z,11.70
2022-11-05T14:44:25.266Z,11.60
2022-11-05T14:46:54.241Z,11.40
2022-11-05T14:49:23.678Z,11.40
2022-11-05T14:51:52.587Z,11.40
2022-11-05T14:54:22.088Z,11.40
2022-11-05T14:56:56.276Z,11.40
2022-11-05T14:59:48.656Z,11.40
2022-11-05T15:02:19.186Z,11.40
2022-11-05T15:04:47.432Z,11.40
2022-11-05T15:07:30.545Z,11.30
2022-11-05T15:10:04.416Z,11.40
2022-11-05T15:12:38.444Z,11.40
2022-11-05T15:15:21.400Z,11.40
2022-11-05T15:17:58.099Z,11.40
2022-11-05T15:20:37.192Z,11.40
2022-11-05T15:23:08.927Z,11.40
2022-11-05T15:25:43.323Z,11.40
2022-11-05T15:28:13.625Z,11.30
2022-11-05T15:30:55.751Z,11.20
2022-11-05T15:33:24.901Z,11.20
2022-11-05T15:35:52.578Z,11.20
2022-11-05T15:38:28.948Z,11.20
2022-11-05T15:41:00.436Z,11.10
2022-11-05T15:43:28.087Z,11.00
2022-11-05T15:45:59.760Z,11.00
2022-11-05T15:48:28.748Z,10.90
2022-11-05T15:50:56.499Z,10.80
2022-11-05T15:56:20.370Z,10.60
2022-11-05T15:58:49.023Z,10.50
2022-11-05T16:01:21.052Z,10.50
2022-11-05T16:03:50.877Z,10.40
2022-11-05T16:06:18.836Z,10.40
2022-11-05T16:08:48.296Z,10.20
2022-11-05T16:11:21.825Z,10.20
2022-11-05T16:13:51.419Z,10.20
2022-11-05T16:16:34.864Z,10.20
2022-11-05T16:19:23.865Z,10.20
2022-11-05T16:21:54.663Z,10.10
2022-11-05T16:24:29.068Z,10.00
2022-11-05T16:27:02.966Z,9.90
2022-11-05T16:29:35.248Z,9.80
2022-11-05T16:32:03.871Z,9.70
2022-11-05T16:34:35.116Z,9.60
2022-11-05T16:37:04.295Z,9.50
2022-11-05T16:39:31.990Z,9.60
2022-11-05T16:41:59.805Z,9.50
2022-11-05T16:44:27.488Z,9.50
2022-11-05T16:46:55.173Z,9.50
2022-11-05T16:49:22.888Z,9.50
2022-11-05T16:51:51.908Z,9.50
2022-11-05T16:54:19.564Z,9.40
2022-11-05T16:56:47.377Z,9.30
2022-11-05T16:59:15.314Z,9.30
2022-11-05T17:01:43.438Z,9.20
2022-11-05T17:04:12.980Z,9.10
2022-11-05T17:06:40.687Z,9.10
2022-11-05T17:09:09.748Z,9.00
2022-11-05T17:11:37.534Z,8.90
2022-11-05T17:14:05.269Z,8.90
2022-11-05T17:16:32.942Z,8.90
2022-11-05T17:19:00.634Z,8.80
2022-11-05T17:21:28.766Z,8.80
2022-11-05T17:23:56.447Z,8.70
2022-11-05T17:26:25.544Z,8.80
2022-11-05T17:28:53.204Z,8.70
2022-11-05T17:31:21.148Z,8.70
2022-11-05T17:33:48.979Z,8.70
2022-11-05T17:36:16.709Z,8.70
2022-11-05T17:38:44.379Z,8.70
2022-11-05T17:41:12.784Z,8.70
2022-11-05T17:43:41.933Z,8.70
2022-11-05T17:46:10.748Z,8.60
2022-11-05T17:48:38.867Z,8.60
2022-11-05T17:51:09.244Z,8.70
2022-11-05T17:53:37.238Z,8.60
2022-11-05T17:56:08.617Z,8.60
2022-11-05T17:58:36.396Z,8.60
2022-11-05T18:01:05.795Z,8.50
2022-11-05T18:03:33.755Z,8.50
2022-11-05T18:06:01.948Z,8.50
2022-11-05T18:08:29.617Z,8.50
2022-11-05T18:10:57.285Z,8.50
2022-11-05T18:13:25.087Z,8.50
2022-11-05T18:15:53.175Z,8.50
2022-11-05T18:18:22.612Z,8.40
2022-11-05T18:20:50.317Z,8.40
2022-11-05T18:23:18.027Z,8.40
2022-11-05T18:25:45.709Z,8.30
2022-11-05T18:28:13.692Z,8.30
2022-11-05T18:30:41.610Z,8.30
2022-11-05T18:33:09.658Z,8.30
2022-11-05T18:35:42.422Z,8.30
2022-11-05T18:38:10.325Z,8.30
2022-11-05T18:40:38.026Z,8.20
2022-11-05T18:43:05.713Z,8.20
2022-11-05T18:45:33.422Z,8.20
2022-11-05T18:48:01.397Z,8.20
2022-11-05T18:50:29.224Z,8.20
2022-11-05T18:52:58.278Z,8.20
2022-11-05T18:55:26.055Z,8.20
2022-11-05T18:57:55.008Z,8.20
2022-11-05T19:00:22.893Z,8.10
2022-11-05T19:02:50.679Z,8.10
2022-11-05T19:05:33.706Z,8.00
2022-11-05T19:08:02.838Z,8.00
2022-11-05T19:10:30.582Z,8.00
2022-11-05T19:12:58.292Z,7.90
2022-11-05T19:15:25.991Z,7.90
2022-11-05T19:17:53.768Z,7.80
2022-11-05T19:20:21.436Z,7.80
2022-11-05T19:22:49.107Z,7.90
2022-11-05T19:25:18.229Z,7.90
2022-11-05T19:27:45.898Z,7.90
2022-11-05T19:30:13.612Z,7.90
2022-11-05T19:32:41.322Z,7.90
2022-11-05T19:35:09.527Z,7.90
2022-11-05T19:37:37.240Z,7.90
2022-11-05T19:40:05.224Z,7.80
2022-11-05T19:42:34.247Z,7.80
2022-11-05T19:45:22.955Z,7.80
2022-11-05T19:47:49.634Z,7.70
2022-11-05T19:50:17.440Z,7.70
2022-11-05T19:52:45.129Z,7.80
2022-11-05T19:55:13.214Z,7.70
2022-11-05T19:57:42.264Z,7.70
2022-11-05T20:00:10.475Z,7.70
2022-11-05T20:02:38.428Z,7.70
2022-11-05T20:05:06.503Z,7.80
2022-11-05T20:07:34.164Z,7.90
2022-11-05T20:10:01.865Z,7.90
2022-11-05T20:12:29.546Z,7.90
2022-11-05T20:14:58.628Z,7.90
2022-11-05T20:17:26.702Z,7.90
2022-11-05T20:19:54.511Z,7.80
2022-11-05T20:22:23.397Z,7.70
2022-11-05T20:24:51.130Z,7.80
2022-11-05T20:27:18.853Z,7.70
2022-11-05T20:29:46.524Z,7.70
2022-11-05T20:32:15.589Z,7.60
2022-11-05T20:34:44.524Z,7.60
2022-11-05T20:37:12.205Z,7.70
2022-11-05T20:39:39.989Z,7.70
2022-11-05T20:42:07.661Z,7.70
2022-11-05T20:44:35.308Z,7.70
2022-11-05T20:47:03.090Z,7.80
2022-11-05T20:49:32.112Z,7.80
2022-11-05T20:51:59.795Z,7.90
2022-11-05T20:54:27.500Z,7.80
2022-11-05T20:56:55.221Z,7.90
2022-11-05T20:59:23.921Z,7.90
2022-11-05T21:01:51.933Z,8.00
2022-11-05T21:04:19.821Z,7.90
2022-11-05T21:06:48.869Z,7.90
2022-11-05T21:09:16.576Z,7.90
2022-11-05T21:12:01.620Z,7.80
2022-11-05T21:14:29.486Z,7.70
2022-11-05T21:16:57.257Z,7.70
2022-11-05T21:19:24.916Z,7.70
2022-11-05T21:21:54.094Z,7.70
2022-11-05T21:24:21.818Z,7.70
2022-11-05T21:26:50.196Z,7.80
2022-11-05T21:29:18.077Z,7.80
2022-11-05T21:31:46.040Z,7.80
2022-11-05T21:34:13.817Z,7.80
2022-11-05T21:36:41.532Z,7.80
2022-11-05T21:39:13.697Z,7.80
2022-11-05T21:41:42.536Z,7.80
2022-11-05T21:44:10.584Z,7.80
2022-11-05T21:46:38.677Z,7.80
2022-11-05T21:49:06.500Z,7.80
2022-11-05T21:51:51.657Z,7.90
2022-11-05T21:54:38.135Z,7.90
2022-11-05T21:57:23.226Z,7.90
2022-11-05T21:59:51.948Z,7.80
2022-11-05T22:02:20.567Z,7.90
2022-11-05T22:04:49.513Z,7.90
2022-11-05T22:07:18.521Z,7.90
2022-11-05T22:09:47.681Z,7.90
2022-11-05T22:12:15.933Z,8.00
2022-11-05T22:14:43.699Z,8.00
2022-11-05T22:17:11.969Z,7.90
2022-11-05T22:19:39.662Z,7.90
2022-11-05T22:22:07.720Z,7.90
2022-11-05T22:24:36.005Z,7.90
2022-11-05T22:27:05.911Z,7.90
2022-11-05T22:29:33.653Z,7.90
2022-11-05T22:32:01.322Z,7.90
2022-11-05T22:34:29.014Z,7.90
2022-11-05T22:36:56.856Z,7.90
2022-11-05T22:39:24.534Z,8.00
2022-11-05T22:41:54.105Z,8.00
2022-11-05T22:44:23.192Z,8.00
2022-11-05T22:46:50.876Z,7.90
2022-11-05T22:49:19.088Z,7.80
2022-11-05T22:51:46.816Z,7.80
2022-11-05T22:54:14.492Z,7.80
2022-11-05T22:56:42.687Z,7.80
2022-11-05T22:59:12.065Z,7.80
2022-11-05T23:01:41.108Z,7.80
2022-11-05T23:04:08.905Z,7.90
2022-11-05T23:06:54.125Z,7.80
2022-11-05T23:09:40.240Z,7.70
2022-11-05T23:12:09.225Z,7.80
2022-11-05T23:14:37.202Z,7.80
2022-11-05T23:17:23.628Z,7.80
2022-11-05T23:20:08.718Z,7.80
2022-11-05T23:22:53.963Z,7.70
2022-11-05T23:25:22.339Z,7.70
2022-11-05T23:27:51.067Z,7.60
2022-11-05T23:30:20.130Z,7.60
2022-11-05T23:32:48.546Z,7.60
2022-11-05T23:35:16.648Z,7.60
2022-11-05T23:38:02.228Z,7.70
2022-11-05T23:40:31.018Z,7.70
2022-11-05T23:43:21.755Z,7.60
2022-11-05T23:46:06.841Z,7.60
2022-11-05T23:48:37.076Z,7.60
2022-11-05T23:51:05.505Z,7.50
2022-11-05T23:53:33.857Z,7.60
2022-11-05T23:56:02.796Z,7.50
2022-11-05T23:58:30.546Z,7.50
